sensor_id;sensor_type;location;lat;lon;timestamp;P1;durP1;ratioP1;P2;durP2;ratioP2
22603;SDS011;11469;49.024;8.246;2023-07-29T00:00:19;1.70;;;1.27;;
22603;SDS011;11469;49.024;8.246;2023-07-29T00:02:44;3.03;;;1.13;;
22603;SDS011;11469;49.024;8.246;2023-07-29T00:05:10;6.80;;;1.77;;
22603;SDS011;11469;49.024;8.246;2023-07-29T00:07:36;5.88;;;1.55;;
22603;SDS011;11469;49.024;8.246;2023-07-29T00:10:01;4.20;;;1.20;;
22603;SDS011;11469;49.024;8.246;2023-07-29T00:12:30;2.17;;;1.30;;
22603;SDS011;11469;49.024;8.246;2023-07-29T00:14:55;4.13;;;1.35;;
22603;SDS011;11469;49.024;8.246;2023-07-29T00:17:21;6.03;;;1.90;;
22603;SDS011;11469;49.024;8.246;2023-07-29T00:19:46;4.18;;;1.25;;
22603;SDS011;11469;49.024;8.246;2023-07-29T00:22:12;4.68;;;1.13;;
22603;SDS011;11469;49.024;8.246;2023-07-29T00:24:37;2.17;;;1.15;;
22603;SDS011;11469;49.024;8.246;2023-07-29T00:27:04;4.43;;;1.20;;
22603;SDS011;11469;49.024;8.246;2023-07-29T00:29:30;1.08;;;0.70;;
22603;SDS011;11469;49.024;8.246;2023-07-29T00:31:55;2.88;;;0.85;;
22603;SDS011;11469;49.024;8.246;2023-07-29T00:34:20;2.25;;;0.60;;
22603;SDS011;11469;49.024;8.246;2023-07-29T00:36:46;1.13;;;0.68;;
22603;SDS011;11469;49.024;8.246;2023-07-29T00:39:11;4.28;;;0.90;;
22603;SDS011;11469;49.024;8.246;2023-07-29T00:41:37;2.15;;;0.80;;
22603;SDS011;11469;49.024;8.246;2023-07-29T00:44:02;3.22;;;0.93;;
22603;SDS011;11469;49.024;8.246;2023-07-29T00:46:28;2.00;;;0.80;;
22603;SDS011;11469;49.024;8.246;2023-07-29T00:48:54;3.08;;;0.98;;
22603;SDS011;11469;49.024;8.246;2023-07-29T00:51:20;2.13;;;1.20;;
22603;SDS011;11469;49.024;8.246;2023-07-29T00:53:46;5.75;;;1.23;;
22603;SDS011;11469;49.024;8.246;2023-07-29T00:56:12;5.15;;;1.25;;
22603;SDS011;11469;49.024;8.246;2023-07-29T00:58:38;5.13;;;1.45;;
22603;SDS011;11469;49.024;8.246;2023-07-29T01:01:03;4.88;;;1.30;;
22603;SDS011;11469;49.024;8.246;2023-07-29T01:03:28;1.73;;;1.00;;
22603;SDS011;11469;49.024;8.246;2023-07-29T01:09:09;4.10;;;0.93;;
22603;SDS011;11469;49.024;8.246;2023-07-29T01:14:19;5.03;;;1.05;;
22603;SDS011;11469;49.024;8.246;2023-07-29T01:16:55;4.65;;;1.17;;
22603;SDS011;11469;49.024;8.246;2023-07-29T01:22:26;7.45;;;1.20;;
22603;SDS011;11469;49.024;8.246;2023-07-29T01:24:52;4.07;;;1.38;;
22603;SDS011;11469;49.024;8.246;2023-07-29T01:27:18;1.98;;;0.80;;
22603;SDS011;11469;49.024;8.246;2023-07-29T01:29:43;6.45;;;1.38;;
22603;SDS011;11469;49.024;8.246;2023-07-29T01:32:11;1.67;;;0.90;;
22603;SDS011;11469;49.024;8.246;2023-07-29T01:35:35;2.55;;;0.98;;
22603;SDS011;11469;49.024;8.246;2023-07-29T01:37:49;5.32;;;1.10;;
22603;SDS011;11469;49.024;8.246;2023-07-29T01:40:18;1.15;;;0.80;;
22603;SDS011;11469;49.024;8.246;2023-07-29T01:42:46;3.30;;;0.85;;
22603;SDS011;11469;49.024;8.246;2023-07-29T01:45:11;0.98;;;0.82;;
22603;SDS011;11469;49.024;8.246;2023-07-29T01:47:37;5.53;;;0.90;;
22603;SDS011;11469;49.024;8.246;2023-07-29T01:50:05;2.47;;;0.80;;
22603;SDS011;11469;49.024;8.246;2023-07-29T01:52:31;2.88;;;0.75;;
22603;SDS011;11469;49.024;8.246;2023-07-29T01:54:57;1.17;;;0.85;;
22603;SDS011;11469;49.024;8.246;2023-07-29T01:57:22;5.38;;;0.70;;
22603;SDS011;11469;49.024;8.246;2023-07-29T01:59:47;1.55;;;0.70;;
22603;SDS011;11469;49.024;8.246;2023-07-29T02:02:13;3.35;;;0.98;;
22603;SDS011;11469;49.024;8.246;2023-07-29T02:04:38;1.65;;;1.00;;
22603;SDS011;11469;49.024;8.246;2023-07-29T02:07:04;1.35;;;1.00;;
22603;SDS011;11469;49.024;8.246;2023-07-29T02:09:29;3.05;;;1.00;;
22603;SDS011;11469;49.024;8.246;2023-07-29T02:11:56;1.30;;;0.90;;
22603;SDS011;11469;49.024;8.246;2023-07-29T02:14:22;4.82;;;1.40;;
22603;SDS011;11469;49.024;8.246;2023-07-29T02:16:47;1.10;;;0.85;;
22603;SDS011;11469;49.024;8.246;2023-07-29T02:19:13;4.63;;;1.33;;
22603;SDS011;11469;49.024;8.246;2023-07-29T02:21:38;5.03;;;1.10;;
22603;SDS011;11469;49.024;8.246;2023-07-29T02:24:04;3.05;;;1.30;;
22603;SDS011;11469;49.024;8.246;2023-07-29T02:26:29;3.03;;;1.00;;
22603;SDS011;11469;49.024;8.246;2023-07-29T02:28:54;4.53;;;1.13;;
22603;SDS011;11469;49.024;8.246;2023-07-29T02:31:23;5.32;;;1.33;;
22603;SDS011;11469;49.024;8.246;2023-07-29T02:33:49;2.20;;;1.05;;
22603;SDS011;11469;49.024;8.246;2023-07-29T02:36:16;1.75;;;1.23;;
22603;SDS011;11469;49.024;8.246;2023-07-29T02:38:42;2.67;;;1.10;;
22603;SDS011;11469;49.024;8.246;2023-07-29T02:41:08;3.47;;;1.40;;
22603;SDS011;11469;49.024;8.246;2023-07-29T02:43:35;9.18;;;1.30;;
22603;SDS011;11469;49.024;8.246;2023-07-29T02:46:01;2.88;;;1.05;;
22603;SDS011;11469;49.024;8.246;2023-07-29T02:48:27;2.38;;;1.08;;
22603;SDS011;11469;49.024;8.246;2023-07-29T02:50:53;3.67;;;0.95;;
22603;SDS011;11469;49.024;8.246;2023-07-29T02:53:20;2.72;;;1.20;;
22603;SDS011;11469;49.024;8.246;2023-07-29T02:55:47;4.60;;;1.30;;
22603;SDS011;11469;49.024;8.246;2023-07-29T02:58:12;2.40;;;1.25;;
22603;SDS011;11469;49.024;8.246;2023-07-29T03:00:38;2.88;;;1.38;;
22603;SDS011;11469;49.024;8.246;2023-07-29T03:03:06;2.38;;;1.42;;
22603;SDS011;11469;49.024;8.246;2023-07-29T03:05:32;4.72;;;1.55;;
22603;SDS011;11469;49.024;8.246;2023-07-29T03:07:57;4.38;;;1.50;;
22603;SDS011;11469;49.024;8.246;2023-07-29T03:10:23;12.15;;;1.55;;
22603;SDS011;11469;49.024;8.246;2023-07-29T03:12:48;11.18;;;1.65;;
22603;SDS011;11469;49.024;8.246;2023-07-29T03:15:13;5.28;;;1.40;;
22603;SDS011;11469;49.024;8.246;2023-07-29T03:17:39;4.32;;;1.33;;
22603;SDS011;11469;49.024;8.246;2023-07-29T03:20:04;3.85;;;1.48;;
22603;SDS011;11469;49.024;8.246;2023-07-29T03:22:33;1.65;;;1.13;;
22603;SDS011;11469;49.024;8.246;2023-07-29T03:24:58;7.13;;;1.33;;
22603;SDS011;11469;49.024;8.246;2023-07-29T03:27:24;2.30;;;1.00;;
22603;SDS011;11469;49.024;8.246;2023-07-29T03:29:49;3.55;;;1.30;;
22603;SDS011;11469;49.024;8.246;2023-07-29T03:32:14;3.22;;;1.17;;
22603;SDS011;11469;49.024;8.246;2023-07-29T03:34:40;1.65;;;1.15;;
22603;SDS011;11469;49.024;8.246;2023-07-29T03:37:05;4.40;;;1.92;;
22603;SDS011;11469;49.024;8.246;2023-07-29T03:39:31;2.20;;;1.35;;
22603;SDS011;11469;49.024;8.246;2023-07-29T03:41:57;4.13;;;1.80;;
22603;SDS011;11469;49.024;8.246;2023-07-29T03:44:22;4.20;;;1.70;;
22603;SDS011;11469;49.024;8.246;2023-07-29T03:46:48;6.03;;;2.20;;
22603;SDS011;11469;49.024;8.246;2023-07-29T03:49:13;3.00;;;2.17;;
22603;SDS011;11469;49.024;8.246;2023-07-29T03:51:38;4.32;;;2.38;;
22603;SDS011;11469;49.024;8.246;2023-07-29T03:54:04;3.83;;;2.00;;
22603;SDS011;11469;49.024;8.246;2023-07-29T03:56:29;8.52;;;2.92;;
22603;SDS011;11469;49.024;8.246;2023-07-29T03:59:01;8.23;;;2.50;;
22603;SDS011;11469;49.024;8.246;2023-07-29T04:01:28;5.97;;;2.70;;
22603;SDS011;11469;49.024;8.246;2023-07-29T04:03:54;10.85;;;3.03;;
22603;SDS011;11469;49.024;8.246;2023-07-29T04:06:19;9.77;;;2.88;;
22603;SDS011;11469;49.024;8.246;2023-07-29T04:08:45;10.73;;;2.83;;
22603;SDS011;11469;49.024;8.246;2023-07-29T04:11:11;10.55;;;2.63;;
22603;SDS011;11469;49.024;8.246;2023-07-29T04:13:36;8.43;;;2.95;;
22603;SDS011;11469;49.024;8.246;2023-07-29T04:16:03;5.78;;;2.72;;
22603;SDS011;11469;49.024;8.246;2023-07-29T04:18:29;4.35;;;2.75;;
22603;SDS011;11469;49.024;8.246;2023-07-29T04:20:54;8.82;;;2.80;;
22603;SDS011;11469;49.024;8.246;2023-07-29T04:23:20;4.72;;;2.85;;
22603;SDS011;11469;49.024;8.246;2023-07-29T04:25:45;10.65;;;4.43;;
22603;SDS011;11469;49.024;8.246;2023-07-29T04:28:10;7.68;;;3.42;;
22603;SDS011;11469;49.024;8.246;2023-07-29T04:30:36;7.25;;;3.33;;
22603;SDS011;11469;49.024;8.246;2023-07-29T04:33:01;10.93;;;3.67;;
22603;SDS011;11469;49.024;8.246;2023-07-29T04:35:26;6.45;;;3.38;;
22603;SDS011;11469;49.024;8.246;2023-07-29T04:37:52;5.97;;;2.90;;
22603;SDS011;11469;49.024;8.246;2023-07-29T04:40:17;10.52;;;3.28;;
22603;SDS011;11469;49.024;8.246;2023-07-29T04:42:43;6.90;;;3.20;;
22603;SDS011;11469;49.024;8.246;2023-07-29T04:45:08;5.63;;;3.13;;
22603;SDS011;11469;49.024;8.246;2023-07-29T04:47:34;13.25;;;3.67;;
22603;SDS011;11469;49.024;8.246;2023-07-29T04:49:59;5.65;;;3.50;;
22603;SDS011;11469;49.024;8.246;2023-07-29T04:52:24;5.15;;;3.30;;
22603;SDS011;11469;49.024;8.246;2023-07-29T04:54:50;8.30;;;2.85;;
22603;SDS011;11469;49.024;8.246;2023-07-29T04:57:16;5.90;;;3.33;;
22603;SDS011;11469;49.024;8.246;2023-07-29T04:59:41;10.35;;;3.42;;
22603;SDS011;11469;49.024;8.246;2023-07-29T05:02:06;7.97;;;3.30;;
22603;SDS011;11469;49.024;8.246;2023-07-29T05:04:32;6.70;;;3.10;;
22603;SDS011;11469;49.024;8.246;2023-07-29T05:06:57;6.38;;;3.00;;
22603;SDS011;11469;49.024;8.246;2023-07-29T05:09:23;5.45;;;3.08;;
22603;SDS011;11469;49.024;8.246;2023-07-29T05:11:48;10.38;;;3.90;;
22603;SDS011;11469;49.024;8.246;2023-07-29T05:14:14;6.18;;;3.45;;
22603;SDS011;11469;49.024;8.246;2023-07-29T05:16:42;4.38;;;3.20;;
22603;SDS011;11469;49.024;8.246;2023-07-29T05:19:07;5.47;;;3.40;;
22603;SDS011;11469;49.024;8.246;2023-07-29T05:21:33;5.10;;;2.90;;
22603;SDS011;11469;49.024;8.246;2023-07-29T05:23:58;6.63;;;3.22;;
22603;SDS011;11469;49.024;8.246;2023-07-29T05:26:24;9.68;;;3.38;;
22603;SDS011;11469;49.024;8.246;2023-07-29T05:28:49;8.27;;;3.53;;
22603;SDS011;11469;49.024;8.246;2023-07-29T05:31:15;3.67;;;2.70;;
22603;SDS011;11469;49.024;8.246;2023-07-29T05:33:40;6.03;;;3.08;;
22603;SDS011;11469;49.024;8.246;2023-07-29T05:36:05;5.82;;;2.70;;
22603;SDS011;11469;49.024;8.246;2023-07-29T05:38:31;10.15;;;2.88;;
22603;SDS011;11469;49.024;8.246;2023-07-29T05:40:56;7.63;;;2.92;;
22603;SDS011;11469;49.024;8.246;2023-07-29T05:43:23;3.95;;;2.72;;
22603;SDS011;11469;49.024;8.246;2023-07-29T05:45:49;6.70;;;3.20;;
22603;SDS011;11469;49.024;8.246;2023-07-29T05:48:15;5.05;;;3.15;;
22603;SDS011;11469;49.024;8.246;2023-07-29T05:50:41;5.38;;;3.03;;
22603;SDS011;11469;49.024;8.246;2023-07-29T05:53:06;3.75;;;2.42;;
22603;SDS011;11469;49.024;8.246;2023-07-29T05:55:31;9.35;;;3.00;;
22603;SDS011;11469;49.024;8.246;2023-07-29T05:57:57;4.70;;;2.70;;
22603;SDS011;11469;49.024;8.246;2023-07-29T06:00:22;5.80;;;3.10;;
22603;SDS011;11469;49.024;8.246;2023-07-29T06:02:48;5.88;;;3.30;;
22603;SDS011;11469;49.024;8.246;2023-07-29T06:05:13;4.13;;;2.95;;
22603;SDS011;11469;49.024;8.246;2023-07-29T06:07:39;5.00;;;3.08;;
22603;SDS011;11469;49.024;8.246;2023-07-29T06:10:09;13.63;;;3.50;;
22603;SDS011;11469;49.024;8.246;2023-07-29T06:12:36;6.25;;;3.28;;
22603;SDS011;11469;49.024;8.246;2023-07-29T06:15:02;6.30;;;3.05;;
22603;SDS011;11469;49.024;8.246;2023-07-29T06:17:28;4.38;;;2.90;;
22603;SDS011;11469;49.024;8.246;2023-07-29T06:19:54;15.75;;;4.07;;
22603;SDS011;11469;49.024;8.246;2023-07-29T06:22:19;10.10;;;3.50;;
22603;SDS011;11469;49.024;8.246;2023-07-29T06:24:44;7.00;;;3.33;;
22603;SDS011;11469;49.024;8.246;2023-07-29T06:27:10;5.57;;;3.30;;
22603;SDS011;11469;49.024;8.246;2023-07-29T06:29:35;7.13;;;3.42;;
22603;SDS011;11469;49.024;8.246;2023-07-29T06:32:01;5.75;;;2.92;;
22603;SDS011;11469;49.024;8.246;2023-07-29T06:34:26;5.80;;;2.70;;
22603;SDS011;11469;49.024;8.246;2023-07-29T06:36:51;10.93;;;2.85;;
22603;SDS011;11469;49.024;8.246;2023-07-29T06:39:17;7.47;;;2.90;;
22603;SDS011;11469;49.024;8.246;2023-07-29T06:41:42;7.55;;;3.05;;
22603;SDS011;11469;49.024;8.246;2023-07-29T06:44:07;7.22;;;2.95;;
22603;SDS011;11469;49.024;8.246;2023-07-29T06:46:33;5.20;;;3.05;;
22603;SDS011;11469;49.024;8.246;2023-07-29T06:48:58;11.20;;;3.15;;
22603;SDS011;11469;49.024;8.246;2023-07-29T06:51:24;3.55;;;2.63;;
22603;SDS011;11469;49.024;8.246;2023-07-29T06:53:49;4.63;;;3.10;;
22603;SDS011;11469;49.024;8.246;2023-07-29T06:56:14;7.75;;;2.90;;
22603;SDS011;11469;49.024;8.246;2023-07-29T06:58:40;6.18;;;3.10;;
22603;SDS011;11469;49.024;8.246;2023-07-29T07:01:05;6.00;;;3.03;;
22603;SDS011;11469;49.024;8.246;2023-07-29T07:03:31;7.55;;;2.85;;
22603;SDS011;11469;49.024;8.246;2023-07-29T07:05:56;8.10;;;3.10;;
22603;SDS011;11469;49.024;8.246;2023-07-29T07:08:22;7.03;;;2.75;;
22603;SDS011;11469;49.024;8.246;2023-07-29T07:10:47;4.60;;;2.85;;
22603;SDS011;11469;49.024;8.246;2023-07-29T07:13:13;6.88;;;2.75;;
22603;SDS011;11469;49.024;8.246;2023-07-29T07:15:38;7.50;;;2.80;;
22603;SDS011;11469;49.024;8.246;2023-07-29T07:18:04;7.97;;;2.67;;
22603;SDS011;11469;49.024;8.246;2023-07-29T07:20:29;5.88;;;3.30;;
22603;SDS011;11469;49.024;8.246;2023-07-29T07:22:54;7.88;;;2.70;;
22603;SDS011;11469;49.024;8.246;2023-07-29T07:25:20;4.30;;;2.70;;
22603;SDS011;11469;49.024;8.246;2023-07-29T07:27:46;5.38;;;3.00;;
22603;SDS011;11469;49.024;8.246;2023-07-29T07:30:11;8.23;;;3.05;;
22603;SDS011;11469;49.024;8.246;2023-07-29T07:32:37;4.97;;;2.95;;
22603;SDS011;11469;49.024;8.246;2023-07-29T07:35:03;5.15;;;3.13;;
22603;SDS011;11469;49.024;8.246;2023-07-29T07:37:29;5.13;;;2.72;;
22603;SDS011;11469;49.024;8.246;2023-07-29T07:39:54;6.70;;;2.67;;
22603;SDS011;11469;49.024;8.246;2023-07-29T07:42:20;5.28;;;2.40;;
22603;SDS011;11469;49.024;8.246;2023-07-29T07:44:45;7.80;;;2.90;;
22603;SDS011;11469;49.024;8.246;2023-07-29T07:47:10;4.93;;;2.25;;
22603;SDS011;11469;49.024;8.246;2023-07-29T07:49:36;4.65;;;2.55;;
22603;SDS011;11469;49.024;8.246;2023-07-29T07:52:01;5.30;;;2.22;;
22603;SDS011;11469;49.024;8.246;2023-07-29T07:54:26;12.07;;;2.30;;
22603;SDS011;11469;49.024;8.246;2023-07-29T07:56:52;11.75;;;2.60;;
22603;SDS011;11469;49.024;8.246;2023-07-29T07:59:17;3.70;;;2.55;;
22603;SDS011;11469;49.024;8.246;2023-07-29T08:01:43;5.97;;;2.78;;
22603;SDS011;11469;49.024;8.246;2023-07-29T08:04:08;8.32;;;2.70;;
22603;SDS011;11469;49.024;8.246;2023-07-29T08:06:33;4.20;;;2.60;;
22603;SDS011;11469;49.024;8.246;2023-07-29T08:09:00;7.53;;;2.80;;
22603;SDS011;11469;49.024;8.246;2023-07-29T08:11:25;3.00;;;2.00;;
22603;SDS011;11469;49.024;8.246;2023-07-29T08:13:51;5.50;;;1.90;;
22603;SDS011;11469;49.024;8.246;2023-07-29T08:16:16;5.00;;;2.00;;
22603;SDS011;11469;49.024;8.246;2023-07-29T08:18:42;4.20;;;2.53;;
22603;SDS011;11469;49.024;8.246;2023-07-29T08:21:07;9.20;;;2.60;;
22603;SDS011;11469;49.024;8.246;2023-07-29T08:23:34;7.47;;;2.97;;
22603;SDS011;11469;49.024;8.246;2023-07-29T08:26:00;8.93;;;2.90;;
22603;SDS011;11469;49.024;8.246;2023-07-29T08:28:27;4.60;;;1.63;;
22603;SDS011;11469;49.024;8.246;2023-07-29T08:30:54;8.35;;;2.10;;
22603;SDS011;11469;49.024;8.246;2023-07-29T08:33:19;2.83;;;1.90;;
22603;SDS011;11469;49.024;8.246;2023-07-29T08:35:45;3.22;;;1.90;;
22603;SDS011;11469;49.024;8.246;2023-07-29T08:38:10;3.42;;;1.90;;
22603;SDS011;11469;49.024;8.246;2023-07-29T08:40:36;4.60;;;2.15;;
22603;SDS011;11469;49.024;8.246;2023-07-29T08:43:04;4.22;;;1.92;;
22603;SDS011;11469;49.024;8.246;2023-07-29T08:45:34;5.28;;;1.88;;
22603;SDS011;11469;49.024;8.246;2023-07-29T08:48:00;3.85;;;1.80;;
22603;SDS011;11469;49.024;8.246;2023-07-29T08:50:31;4.50;;;2.10;;
22603;SDS011;11469;49.024;8.246;2023-07-29T08:52:58;5.60;;;2.13;;
22603;SDS011;11469;49.024;8.246;2023-07-29T08:55:25;5.63;;;1.80;;
22603;SDS011;11469;49.024;8.246;2023-07-29T08:57:51;2.92;;;1.88;;
22603;SDS011;11469;49.024;8.246;2023-07-29T09:00:17;4.70;;;1.83;;
22603;SDS011;11469;49.024;8.246;2023-07-29T09:02:42;4.53;;;1.50;;
22603;SDS011;11469;49.024;8.246;2023-07-29T09:05:08;3.03;;;1.60;;
22603;SDS011;11469;49.024;8.246;2023-07-29T09:07:33;5.13;;;1.55;;
22603;SDS011;11469;49.024;8.246;2023-07-29T09:10:01;2.45;;;1.85;;
22603;SDS011;11469;49.024;8.246;2023-07-29T09:12:26;3.53;;;1.50;;
22603;SDS011;11469;49.024;8.246;2023-07-29T09:14:52;3.05;;;1.50;;
22603;SDS011;11469;49.024;8.246;2023-07-29T09:17:18;2.25;;;1.20;;
22603;SDS011;11469;49.024;8.246;2023-07-29T09:19:49;5.47;;;1.60;;
22603;SDS011;11469;49.024;8.246;2023-07-29T09:22:22;5.22;;;1.50;;
22603;SDS011;11469;49.024;8.246;2023-07-29T09:24:47;2.00;;;1.30;;
22603;SDS011;11469;49.024;8.246;2023-07-29T09:27:26;3.65;;;1.70;;
22603;SDS011;11469;49.024;8.246;2023-07-29T09:29:52;3.38;;;1.42;;
22603;SDS011;11469;49.024;8.246;2023-07-29T09:32:19;2.42;;;1.60;;
22603;SDS011;11469;49.024;8.246;2023-07-29T09:34:46;3.25;;;1.52;;
22603;SDS011;11469;49.024;8.246;2023-07-29T09:37:18;1.73;;;1.27;;
22603;SDS011;11469;49.024;8.246;2023-07-29T09:39:48;2.10;;;1.40;;
22603;SDS011;11469;49.024;8.246;2023-07-29T09:42:18;3.30;;;1.60;;
22603;SDS011;11469;49.024;8.246;2023-07-29T09:44:45;10.20;;;1.75;;
22603;SDS011;11469;49.024;8.246;2023-07-29T09:47:18;3.67;;;1.38;;
22603;SDS011;11469;49.024;8.246;2023-07-29T09:49:45;3.17;;;1.10;;
22603;SDS011;11469;49.024;8.246;2023-07-29T09:52:10;5.60;;;1.27;;
22603;SDS011;11469;49.024;8.246;2023-07-29T09:54:36;5.93;;;1.10;;
22603;SDS011;11469;49.024;8.246;2023-07-29T09:57:02;1.75;;;1.13;;
22603;SDS011;11469;49.024;8.246;2023-07-29T09:59:27;4.55;;;1.23;;
22603;SDS011;11469;49.024;8.246;2023-07-29T10:01:53;1.75;;;1.17;;
22603;SDS011;11469;49.024;8.246;2023-07-29T10:04:19;3.03;;;0.95;;
22603;SDS011;11469;49.024;8.246;2023-07-29T10:06:46;1.15;;;0.90;;
22603;SDS011;11469;49.024;8.246;2023-07-29T10:09:12;3.78;;;1.20;;
22603;SDS011;11469;49.024;8.246;2023-07-29T10:11:38;7.03;;;1.05;;
22603;SDS011;11469;49.024;8.246;2023-07-29T10:14:05;2.30;;;0.88;;
22603;SDS011;11469;49.024;8.246;2023-07-29T10:16:31;1.23;;;0.70;;
22603;SDS011;11469;49.024;8.246;2023-07-29T10:18:57;4.05;;;1.48;;
22603;SDS011;11469;49.024;8.246;2023-07-29T10:21:24;5.93;;;1.48;;
22603;SDS011;11469;49.024;8.246;2023-07-29T10:23:49;1.70;;;0.88;;
22603;SDS011;11469;49.024;8.246;2023-07-29T10:26:22;1.92;;;1.00;;
22603;SDS011;11469;49.024;8.246;2023-07-29T10:28:48;1.77;;;0.80;;
22603;SDS011;11469;49.024;8.246;2023-07-29T10:31:18;3.53;;;1.08;;
22603;SDS011;11469;49.024;8.246;2023-07-29T10:33:44;1.83;;;1.00;;
22603;SDS011;11469;49.024;8.246;2023-07-29T10:36:10;2.00;;;1.05;;
22603;SDS011;11469;49.024;8.246;2023-07-29T10:38:36;8.18;;;0.95;;
22603;SDS011;11469;49.024;8.246;2023-07-29T10:41:02;4.63;;;1.17;;
22603;SDS011;11469;49.024;8.246;2023-07-29T10:43:32;1.70;;;0.90;;
22603;SDS011;11469;49.024;8.246;2023-07-29T10:46:14;3.50;;;0.95;;
22603;SDS011;11469;49.024;8.246;2023-07-29T10:48:43;1.65;;;0.80;;
22603;SDS011;11469;49.024;8.246;2023-07-29T10:51:25;1.80;;;0.93;;
22603;SDS011;11469;49.024;8.246;2023-07-29T10:54:04;4.10;;;1.10;;
22603;SDS011;11469;49.024;8.246;2023-07-29T10:56:36;1.48;;;0.85;;
22603;SDS011;11469;49.024;8.246;2023-07-29T11:01:51;1.70;;;1.00;;
22603;SDS011;11469;49.024;8.246;2023-07-29T11:15:16;2.15;;;1.10;;
22603;SDS011;11469;49.024;8.246;2023-07-29T11:20:15;1.40;;;1.10;;
22603;SDS011;11469;49.024;8.246;2023-07-29T11:22:41;3.80;;;1.05;;
22603;SDS011;11469;49.024;8.246;2023-07-29T11:25:08;2.50;;;1.13;;
22603;SDS011;11469;49.024;8.246;2023-07-29T11:27:35;2.75;;;1.30;;
22603;SDS011;11469;49.024;8.246;2023-07-29T11:30:05;2.00;;;1.20;;
22603;SDS011;11469;49.024;8.246;2023-07-29T11:32:35;3.10;;;1.30;;
22603;SDS011;11469;49.024;8.246;2023-07-29T11:35:02;3.13;;;1.08;;
22603;SDS011;11469;49.024;8.246;2023-07-29T11:37:28;2.15;;;1.40;;
22603;SDS011;11469;49.024;8.246;2023-07-29T11:39:54;2.08;;;1.30;;
22603;SDS011;11469;49.024;8.246;2023-07-29T11:42:19;7.85;;;1.10;;
22603;SDS011;11469;49.024;8.246;2023-07-29T11:44:45;2.38;;;1.30;;
22603;SDS011;11469;49.024;8.246;2023-07-29T11:47:11;7.30;;;1.40;;
22603;SDS011;11469;49.024;8.246;2023-07-29T11:49:41;5.90;;;1.45;;
22603;SDS011;11469;49.024;8.246;2023-07-29T11:52:07;1.75;;;1.23;;
22603;SDS011;11469;49.024;8.246;2023-07-29T11:54:37;2.03;;;1.05;;
22603;SDS011;11469;49.024;8.246;2023-07-29T11:57:06;1.45;;;1.00;;
22603;SDS011;11469;49.024;8.246;2023-07-29T11:59:33;7.22;;;1.20;;
22603;SDS011;11469;49.024;8.246;2023-07-29T12:02:09;2.55;;;1.20;;
22603;SDS011;11469;49.024;8.246;2023-07-29T12:04:37;2.47;;;1.10;;
22603;SDS011;11469;49.024;8.246;2023-07-29T12:07:04;3.42;;;1.00;;
22603;SDS011;11469;49.024;8.246;2023-07-29T12:09:30;4.20;;;1.63;;
22603;SDS011;11469;49.024;8.246;2023-07-29T12:11:55;4.68;;;1.08;;
22603;SDS011;11469;49.024;8.246;2023-07-29T12:14:21;3.08;;;1.40;;
22603;SDS011;11469;49.024;8.246;2023-07-29T12:16:50;6.15;;;1.45;;
22603;SDS011;11469;49.024;8.246;2023-07-29T12:19:17;5.18;;;1.20;;
22603;SDS011;11469;49.024;8.246;2023-07-29T12:21:43;1.88;;;1.02;;
22603;SDS011;11469;49.024;8.246;2023-07-29T12:24:09;3.97;;;1.10;;
22603;SDS011;11469;49.024;8.246;2023-07-29T12:26:37;1.70;;;1.33;;
22603;SDS011;11469;49.024;8.246;2023-07-29T12:29:12;5.60;;;1.00;;
22603;SDS011;11469;49.024;8.246;2023-07-29T12:31:38;2.53;;;1.15;;
22603;SDS011;11469;49.024;8.246;2023-07-29T12:34:03;2.42;;;1.30;;
22603;SDS011;11469;49.024;8.246;2023-07-29T12:36:45;3.78;;;1.35;;
22603;SDS011;11469;49.024;8.246;2023-07-29T12:39:21;2.47;;;1.13;;
22603;SDS011;11469;49.024;8.246;2023-07-29T12:44:15;2.50;;;1.13;;
22603;SDS011;11469;49.024;8.246;2023-07-29T12:46:40;1.58;;;1.13;;
22603;SDS011;11469;49.024;8.246;2023-07-29T12:49:06;1.50;;;1.10;;
22603;SDS011;11469;49.024;8.246;2023-07-29T12:51:32;3.60;;;1.35;;
22603;SDS011;11469;49.024;8.246;2023-07-29T12:53:57;4.68;;;1.25;;
22603;SDS011;11469;49.024;8.246;2023-07-29T12:56:23;5.50;;;1.13;;
22603;SDS011;11469;49.024;8.246;2023-07-29T12:58:48;2.88;;;1.20;;
22603;SDS011;11469;49.024;8.246;2023-07-29T13:01:14;5.88;;;1.40;;
22603;SDS011;11469;49.024;8.246;2023-07-29T13:03:46;1.40;;;1.10;;
22603;SDS011;11469;49.024;8.246;2023-07-29T13:06:12;1.45;;;1.00;;
22603;SDS011;11469;49.024;8.246;2023-07-29T13:08:38;3.22;;;1.40;;
22603;SDS011;11469;49.024;8.246;2023-07-29T13:11:03;4.03;;;1.42;;
22603;SDS011;11469;49.024;8.246;2023-07-29T13:13:29;3.60;;;1.58;;
22603;SDS011;11469;49.024;8.246;2023-07-29T13:15:55;3.58;;;1.13;;
22603;SDS011;11469;49.024;8.246;2023-07-29T13:18:21;2.78;;;0.90;;
22603;SDS011;11469;49.024;8.246;2023-07-29T13:20:46;10.55;;;1.23;;
22603;SDS011;11469;49.024;8.246;2023-07-29T13:23:12;1.67;;;0.98;;
22603;SDS011;11469;49.024;8.246;2023-07-29T13:25:38;1.55;;;1.10;;
22603;SDS011;11469;49.024;8.246;2023-07-29T13:28:03;2.50;;;1.10;;
22603;SDS011;11469;49.024;8.246;2023-07-29T13:30:28;3.25;;;1.35;;
22603;SDS011;11469;49.024;8.246;2023-07-29T13:32:54;1.83;;;1.30;;
22603;SDS011;11469;49.024;8.246;2023-07-29T13:35:19;2.03;;;1.40;;
22603;SDS011;11469;49.024;8.246;2023-07-29T13:37:45;3.50;;;1.50;;
22603;SDS011;11469;49.024;8.246;2023-07-29T13:40:10;1.38;;;0.98;;
22603;SDS011;11469;49.024;8.246;2023-07-29T13:42:36;1.52;;;0.77;;
22603;SDS011;11469;49.024;8.246;2023-07-29T13:45:02;3.15;;;1.20;;
22603;SDS011;11469;49.024;8.246;2023-07-29T13:47:28;5.50;;;1.10;;
22603;SDS011;11469;49.024;8.246;2023-07-29T13:49:53;2.42;;;1.20;;
22603;SDS011;11469;49.024;8.246;2023-07-29T13:52:18;1.73;;;1.00;;
22603;SDS011;11469;49.024;8.246;2023-07-29T13:54:44;1.88;;;1.15;;
22603;SDS011;11469;49.024;8.246;2023-07-29T13:57:09;1.23;;;0.80;;
22603;SDS011;11469;49.024;8.246;2023-07-29T13:59:35;2.00;;;1.20;;
22603;SDS011;11469;49.024;8.246;2023-07-29T14:02:03;3.33;;;1.25;;
22603;SDS011;11469;49.024;8.246;2023-07-29T14:04:32;2.75;;;1.40;;
22603;SDS011;11469;49.024;8.246;2023-07-29T14:06:58;5.53;;;1.10;;
22603;SDS011;11469;49.024;8.246;2023-07-29T14:09:24;3.22;;;1.50;;
22603;SDS011;11469;49.024;8.246;2023-07-29T14:11:50;6.93;;;1.90;;
22603;SDS011;11469;49.024;8.246;2023-07-29T14:14:15;3.38;;;1.38;;
22603;SDS011;11469;49.024;8.246;2023-07-29T14:16:41;2.25;;;1.30;;
22603;SDS011;11469;49.024;8.246;2023-07-29T14:19:06;3.63;;;1.23;;
22603;SDS011;11469;49.024;8.246;2023-07-29T14:21:31;3.08;;;1.52;;
22603;SDS011;11469;49.024;8.246;2023-07-29T14:23:57;3.17;;;2.20;;
22603;SDS011;11469;49.024;8.246;2023-07-29T14:26:22;3.08;;;1.27;;
22603;SDS011;11469;49.024;8.246;2023-07-29T14:28:48;2.97;;;1.27;;
22603;SDS011;11469;49.024;8.246;2023-07-29T14:31:14;5.47;;;1.50;;
22603;SDS011;11469;49.024;8.246;2023-07-29T14:33:41;1.77;;;1.40;;
22603;SDS011;11469;49.024;8.246;2023-07-29T14:36:07;4.40;;;1.10;;
22603;SDS011;11469;49.024;8.246;2023-07-29T14:38:32;5.60;;;1.40;;
22603;SDS011;11469;49.024;8.246;2023-07-29T14:40:58;2.55;;;1.20;;
22603;SDS011;11469;49.024;8.246;2023-07-29T14:43:23;1.85;;;1.27;;
22603;SDS011;11469;49.024;8.246;2023-07-29T14:45:49;2.65;;;1.13;;
22603;SDS011;11469;49.024;8.246;2023-07-29T14:48:14;2.47;;;1.60;;
22603;SDS011;11469;49.024;8.246;2023-07-29T14:50:40;2.65;;;1.20;;
22603;SDS011;11469;49.024;8.246;2023-07-29T14:53:06;4.40;;;1.48;;
22603;SDS011;11469;49.024;8.246;2023-07-29T14:55:31;2.22;;;1.00;;
22603;SDS011;11469;49.024;8.246;2023-07-29T14:57:57;2.25;;;1.42;;
22603;SDS011;11469;49.024;8.246;2023-07-29T15:00:22;2.20;;;1.25;;
22603;SDS011;11469;49.024;8.246;2023-07-29T15:02:48;6.55;;;1.92;;
22603;SDS011;11469;49.024;8.246;2023-07-29T15:05:13;2.90;;;1.58;;
22603;SDS011;11469;49.024;8.246;2023-07-29T15:07:39;4.10;;;1.52;;
22603;SDS011;11469;49.024;8.246;2023-07-29T15:10:04;4.20;;;1.50;;